Time;durP1;ratioP1;P1;durP2;ratioP2;P2;SDS_P1;SDS_P2;PMS_P1;PMS_P2;Temp;Humidity;BMP_temperature;BMP_pressure;BME280_temperature;BME280_humidity;BME280_pressure;Samples;Min_cycle;Max_cycle;Signal;HPM_P1;HPM_P2
2022/11/26 00:02:17;;;;;;;40.77;18.43;;;4.40;99.90;;;;;;4977549;28;20206;-55
2022/11/26 00:04:47;;;;;;;37.07;17.97;;;4.30;99.90;;;;;;4968819;28;20198;-55
2022/11/26 00:07:20;;;;;;;44.27;17.00;;;4.30;99.90;;;;;;4978336;28;20250;-55
2022/11/26 00:09:49;;;;;;;41.70;17.27;;;4.30;99.90;;;;;;4975599;28;20199;-57
2022/11/26 00:12:19;;;;;;;41.07;17.40;;;4.30;99.90;;;;;;5006386;28;20190;-56
2022/11/26 00:14:47;;;;;;;41.20;16.67;;;4.30;99.90;;;;;;4977172;28;20265;-55
2022/11/26 00:17:16;;;;;;;32.27;15.77;;;4.20;99.90;;;;;;4981084;28;20735;-56
2022/11/26 00:19:47;;;;;;;38.87;17.53;;;4.20;99.90;;;;;;4978390;28;20231;-54
2022/11/26 00:22:23;;;;;;;38.27;16.53;;;4.20;99.90;;;;;;4982010;28;20195;-55
2022/11/26 00:24:52;;;;;;;38.70;18.00;;;4.20;99.90;;;;;;4985114;28;20194;-56
2022/11/26 00:27:23;;;;;;;41.73;17.90;;;4.10;99.90;;;;;;4986788;28;20214;-56
2022/11/26 00:29:51;;;;;;;40.67;16.77;;;4.10;99.90;;;;;;4985339;28;20738;-56
2022/11/26 00:32:22;;;;;;;44.80;16.80;;;4.00;99.90;;;;;;4975714;28;20203;-55
2022/11/26 00:34:53;;;;;;;43.03;17.03;;;4.00;99.90;;;;;;4972703;28;20207;-55
2022/11/26 00:37:25;;;;;;;49.00;16.90;;;4.00;99.90;;;;;;4980322;28;20199;-56
2022/11/26 00:39:54;;;;;;;53.97;16.90;;;4.10;99.90;;;;;;4970468;28;20203;-56
2022/11/26 00:42:23;;;;;;;40.20;16.67;;;4.30;99.90;;;;;;5012748;28;20638;-56
2022/11/26 00:44:51;;;;;;;58.50;17.07;;;4.50;99.90;;;;;;4976602;28;20598;-55
2022/11/26 00:47:19;;;;;;;38.57;16.73;;;4.50;99.90;;;;;;5009723;28;20219;-56
2022/11/26 00:49:48;;;;;;;44.87;15.93;;;4.70;99.90;;;;;;4979961;28;20198;-55
2022/11/26 00:52:28;;;;;;;48.33;16.57;;;4.70;99.90;;;;;;4979355;28;20202;-54
2022/11/26 00:54:59;;;;;;;52.37;16.57;;;4.80;99.90;;;;;;4982861;28;20225;-55
2022/11/26 00:57:28;;;;;;;50.13;17.03;;;4.80;99.90;;;;;;5000795;28;20191;-55
2022/11/26 00:59:56;;;;;;;41.70;15.13;;;4.90;99.90;;;;;;4976909;28;20200;-56
2022/11/26 01:02:25;;;;;;;40.67;14.83;;;4.90;99.90;;;;;;4984031;28;20221;-55
2022/11/26 01:04:53;;;;;;;45.37;16.20;;;4.90;99.90;;;;;;4979222;28;20599;-56
2022/11/26 01:07:23;;;;;;;45.20;15.50;;;4.90;99.90;;;;;;4979713;28;20551;-56
2022/11/26 01:09:51;;;;;;;42.97;14.80;;;4.90;99.90;;;;;;4979206;28;20209;-56
2022/11/26 01:12:19;;;;;;;49.90;15.70;;;4.90;99.90;;;;;;4980134;28;20662;-56
2022/11/26 01:14:47;;;;;;;39.10;14.23;;;4.90;99.90;;;;;;4984993;28;20195;-56
2022/11/26 01:17:16;;;;;;;44.13;15.50;;;4.90;99.90;;;;;;4980158;28;20191;-56
2022/11/26 01:19:44;;;;;;;38.10;15.57;;;4.80;99.90;;;;;;4983465;28;20223;-54
2022/11/26 01:22:20;;;;;;;39.37;14.57;;;4.80;99.90;;;;;;4979453;28;20196;-56
2022/11/26 01:24:50;;;;;;;45.10;14.77;;;4.70;99.90;;;;;;4985941;28;20206;-56
2022/11/26 01:27:20;;;;;;;36.40;14.50;;;4.70;99.90;;;;;;4980321;28;20226;-56
2022/11/26 01:29:48;;;;;;;35.00;13.90;;;4.60;99.90;;;;;;4977097;28;20268;-55
2022/11/26 01:32:17;;;;;;;46.53;14.50;;;4.60;99.90;;;;;;4982230;28;20196;-56
2022/11/26 01:34:45;;;;;;;37.07;13.67;;;4.60;99.90;;;;;;4973443;28;20584;-57
2022/11/26 01:37:14;;;;;;;48.10;14.57;;;4.50;99.90;;;;;;4979179;28;20199;-56
2022/11/26 01:39:43;;;;;;;39.83;13.37;;;4.50;99.90;;;;;;4978444;28;20549;-55
2022/11/26 01:42:26;;;;;;;53.63;13.50;;;4.50;99.90;;;;;;4977619;28;20202;-55
2022/11/26 01:44:54;;;;;;;43.40;13.10;;;4.60;99.90;;;;;;5030740;28;20203;-56
2022/11/26 01:47:24;;;;;;;39.50;13.07;;;4.60;99.90;;;;;;4978550;28;20219;-56
2022/11/26 01:50:32;;;;;;;35.93;13.07;;;4.60;99.90;;;;;;4976449;28;20203;-56
2022/11/26 01:53:03;;;;;;;48.93;12.90;;;4.60;99.90;;;;;;4983980;28;20213;-56
2022/11/26 01:55:36;;;;;;;49.60;13.67;;;4.60;99.90;;;;;;4984205;28;20215;-56
2022/11/26 01:58:10;;;;;;;44.63;13.17;;;4.60;99.90;;;;;;4986783;28;20187;-56
2022/11/26 02:00:46;;;;;;;48.63;14.10;;;4.70;99.90;;;;;;4983656;28;20812;-56
2022/11/26 02:03:16;;;;;;;46.20;13.17;;;4.80;99.90;;;;;;4982748;28;20219;-63
2022/11/26 02:05:54;;;;;;;44.93;12.87;;;4.80;99.90;;;;;;4976827;28;20519;-63
2022/11/26 02:08:25;;;;;;;47.97;13.17;;;4.80;99.90;;;;;;4979900;28;20305;-63
2022/11/26 02:10:55;;;;;;;39.03;12.23;;;4.80;99.90;;;;;;4989008;28;20209;-62
2022/11/26 02:13:26;;;;;;;42.00;13.33;;;4.80;99.90;;;;;;4986775;28;20199;-62
2022/11/26 02:16:01;;;;;;;44.60;12.10;;;4.80;99.90;;;;;;4985293;28;20643;-62
2022/11/26 02:18:38;;;;;;;50.23;12.60;;;4.80;99.90;;;;;;4978289;28;20199;-62
2022/11/26 02:21:09;;;;;;;49.43;12.43;;;4.80;99.90;;;;;;4977928;28;20235;-62
2022/11/26 02:24:09;;;;;;;43.97;11.83;;;4.80;99.90;;;;;;4982608;28;20187;-62
2022/11/26 02:27:16;;;;;;;43.23;11.77;;;4.80;99.90;;;;;;4983139;28;20201;-62
2022/11/26 02:30:04;;;;;;;47.67;11.57;;;4.90;99.90;;;;;;4981710;28;20297;-63
2022/11/26 02:32:54;;;;;;;44.30;11.70;;;4.90;99.90;;;;;;4978927;28;20220;-63
2022/11/26 02:35:27;;;;;;;43.90;11.40;;;4.80;99.90;;;;;;4978886;28;20195;-62
2022/11/26 02:37:58;;;;;;;32.30;11.67;;;4.90;99.90;;;;;;4975757;28;20202;-62
2022/11/26 02:40:26;;;;;;;35.07;11.20;;;4.90;99.90;;;;;;4985764;28;20653;-62
2022/11/26 02:42:55;;;;;;;46.07;11.47;;;4.90;99.90;;;;;;4989163;28;20202;-63
2022/11/26 02:45:29;;;;;;;56.53;12.60;;;4.80;99.90;;;;;;4982342;28;20194;-62
2022/11/26 02:48:00;;;;;;;42.30;11.70;;;4.80;99.90;;;;;;4984254;28;20268;-63
2022/11/26 02:50:41;;;;;;;38.33;11.63;;;4.80;99.90;;;;;;4985022;28;20205;-63
2022/11/26 02:53:12;;;;;;;40.33;11.90;;;4.90;99.90;;;;;;4989926;28;20195;-63
2022/11/26 02:55:44;;;;;;;36.73;11.77;;;4.90;99.90;;;;;;5022029;28;21026;-63
2022/11/26 02:58:14;;;;;;;47.47;12.43;;;4.90;99.90;;;;;;4979343;28;20199;-63
2022/11/26 03:00:45;;;;;;;47.87;13.23;;;4.90;99.90;;;;;;4989402;28;20537;-62
2022/11/26 03:03:22;;;;;;;52.17;11.80;;;4.90;99.90;;;;;;4993558;28;20507;-62
2022/11/26 03:05:53;;;;;;;42.13;12.13;;;5.00;99.90;;;;;;4979412;28;20202;-63
2022/11/26 03:08:22;;;;;;;38.03;11.97;;;5.00;99.90;;;;;;4975861;28;20665;-62
2022/11/26 03:10:50;;;;;;;45.10;11.90;;;5.00;99.90;;;;;;4975254;28;20249;-62
2022/11/26 03:13:19;;;;;;;47.33;11.90;;;5.00;99.90;;;;;;4987506;28;20206;-63
2022/11/26 03:15:48;;;;;;;37.37;11.13;;;5.10;99.90;;;;;;5004050;28;20211;-63
2022/11/26 03:18:16;;;;;;;42.93;12.37;;;5.10;99.90;;;;;;4983193;28;20218;-63
2022/11/26 03:20:45;;;;;;;47.43;10.93;;;5.10;99.90;;;;;;4987389;28;20226;-62
2022/11/26 03:23:13;;;;;;;39.47;11.87;;;5.10;99.90;;;;;;4980563;28;20206;-63
2022/11/26 03:25:41;;;;;;;39.43;11.97;;;5.10;99.90;;;;;;4980253;28;20195;-63
2022/11/26 03:28:10;;;;;;;49.73;12.37;;;5.10;99.90;;;;;;4968222;28;20210;-63
2022/11/26 03:30:38;;;;;;;41.83;11.17;;;5.10;99.90;;;;;;4971540;28;20199;-62
2022/11/26 03:33:08;;;;;;;41.30;11.40;;;5.10;99.90;;;;;;4977034;28;20223;-63
2022/11/26 03:35:36;;;;;;;33.23;11.20;;;5.10;99.90;;;;;;4964735;28;20199;-62
2022/11/26 03:38:04;;;;;;;39.03;10.97;;;5.10;99.90;;;;;;4980294;28;20191;-62
2022/11/26 03:40:32;;;;;;;39.20;11.30;;;5.10;99.90;;;;;;4972112;28;20188;-63
2022/11/26 03:43:01;;;;;;;47.53;11.93;;;5.00;99.90;;;;;;4983334;28;20194;-62
2022/11/26 03:45:29;;;;;;;41.33;11.77;;;5.00;99.90;;;;;;4979083;28;20203;-62
2022/11/26 03:47:57;;;;;;;40.20;11.93;;;5.00;99.90;;;;;;4985020;28;20265;-62
2022/11/26 03:50:27;;;;;;;36.57;11.03;;;5.00;99.90;;;;;;4989241;28;20282;-63
2022/11/26 03:52:56;;;;;;;44.23;10.67;;;5.00;99.90;;;;;;4980313;28;20225;-62
2022/11/26 03:55:24;;;;;;;43.63;11.10;;;5.00;99.90;;;;;;4983936;28;20556;-63
2022/11/26 03:57:52;;;;;;;39.30;10.93;;;5.00;99.90;;;;;;5008870;28;20195;-63
2022/11/26 04:00:21;;;;;;;41.03;10.73;;;5.00;99.90;;;;;;4972648;28;20562;-62
2022/11/26 04:02:50;;;;;;;38.30;11.23;;;5.00;99.90;;;;;;4974638;28;20201;-62
2022/11/26 04:05:18;;;;;;;41.73;10.47;;;5.10;99.90;;;;;;4981049;28;20543;-63
2022/11/26 04:07:48;;;;;;;41.83;10.40;;;5.10;99.90;;;;;;4980822;28;20515;-63
2022/11/26 04:10:16;;;;;;;50.47;10.70;;;5.10;99.90;;;;;;4971115;28;20527;-62
2022/11/26 04:12:45;;;;;;;33.50;9.50;;;5.00;99.90;;;;;;4979612;28;21119;-62
2022/11/26 04:15:13;;;;;;;44.47;10.17;;;5.00;99.90;;;;;;4985942;28;20210;-63
2022/11/26 04:17:41;;;;;;;39.97;9.87;;;5.00;99.90;;;;;;4978919;28;20198;-63
2022/11/26 04:20:10;;;;;;;30.87;10.13;;;5.00;99.90;;;;;;4983589;28;20259;-62
2022/11/26 04:22:39;;;;;;;47.17;10.33;;;5.00;99.90;;;;;;4996943;28;20206;-62
2022/11/26 04:25:09;;;;;;;40.97;9.77;;;5.10;99.90;;;;;;4981860;28;20256;-62
2022/11/26 04:27:38;;;;;;;29.43;9.57;;;5.10;99.90;;;;;;4970502;28;20210;-63
2022/11/26 04:30:07;;;;;;;41.17;10.63;;;5.10;99.90;;;;;;4984064;28;20239;-62
2022/11/26 04:32:38;;;;;;;35.90;10.07;;;5.10;99.90;;;;;;4982486;28;20229;-62
2022/11/26 04:35:12;;;;;;;38.70;10.33;;;5.10;99.90;;;;;;4974330;28;20226;-62
2022/11/26 04:37:40;;;;;;;42.97;10.43;;;5.20;99.90;;;;;;4978425;28;20211;-62
2022/11/26 04:40:12;;;;;;;32.40;9.30;;;5.20;99.90;;;;;;4980302;28;20202;-63
2022/11/26 04:42:40;;;;;;;38.27;10.00;;;5.10;99.90;;;;;;4984476;28;20205;-62
2022/11/26 04:45:10;;;;;;;32.77;9.40;;;5.10;99.90;;;;;;5004770;28;20191;-63
2022/11/26 04:47:38;;;;;;;34.43;9.50;;;5.10;99.90;;;;;;4981790;28;20191;-62
2022/11/26 04:50:11;;;;;;;44.03;9.57;;;5.10;99.90;;;;;;4991117;28;20247;-63
2022/11/26 04:52:39;;;;;;;35.70;9.67;;;5.00;99.90;;;;;;4982621;28;20199;-63
2022/11/26 04:55:08;;;;;;;32.13;8.43;;;5.00;99.90;;;;;;4996464;28;20222;-63
2022/11/26 04:57:38;;;;;;;44.80;8.67;;;5.00;99.90;;;;;;5026461;28;20187;-63
2022/11/26 05:00:08;;;;;;;33.27;8.03;;;5.00;99.90;;;;;;5005640;28;20211;-62
2022/11/26 05:02:36;;;;;;;31.37;8.77;;;5.00;99.90;;;;;;4977358;28;20223;-62
2022/11/26 05:05:05;;;;;;;46.70;9.60;;;5.00;99.90;;;;;;4975386;28;20290;-63
2022/11/26 05:07:34;;;;;;;38.90;9.20;;;5.00;99.90;;;;;;4976870;28;20650;-62
2022/11/26 05:10:02;;;;;;;30.90;8.70;;;5.00;99.90;;;;;;4978682;28;20218;-62
2022/11/26 05:12:30;;;;;;;45.00;8.57;;;5.10;99.90;;;;;;4986025;28;20236;-62
2022/11/26 05:15:00;;;;;;;42.90;9.00;;;5.10;99.90;;;;;;4983444;28;20207;-63
2022/11/26 05:17:28;;;;;;;36.17;8.47;;;5.20;99.90;;;;;;4987501;28;20611;-62
2022/11/26 05:19:57;;;;;;;28.47;9.17;;;5.20;99.90;;;;;;4988215;28;20226;-62
2022/11/26 05:22:25;;;;;;;36.50;8.63;;;5.20;99.90;;;;;;4979764;28;20195;-63
2022/11/26 05:24:54;;;;;;;40.43;9.23;;;5.20;99.90;;;;;;4975793;28;20199;-62
2022/11/26 05:27:22;;;;;;;41.87;8.70;;;5.20;99.90;;;;;;4975466;28;20210;-62
2022/11/26 05:29:50;;;;;;;38.37;9.87;;;5.20;99.90;;;;;;4983249;28;20208;-62
2022/11/26 05:32:20;;;;;;;37.77;8.67;;;5.30;99.90;;;;;;4976612;28;20551;-62
2022/11/26 05:34:48;;;;;;;41.03;10.17;;;5.30;99.90;;;;;;4976726;28;20200;-62
2022/11/26 05:37:16;;;;;;;33.57;8.30;;;5.30;99.90;;;;;;4983219;28;20202;-62
2022/11/26 05:39:47;;;;;;;36.77;9.47;;;5.30;99.90;;;;;;4992622;28;20192;-62
2022/11/26 05:42:16;;;;;;;42.80;9.70;;;5.30;99.90;;;;;;4977555;28;20203;-63
2022/11/26 05:44:44;;;;;;;37.93;8.87;;;5.30;99.90;;;;;;4981596;28;20211;-63
2022/11/26 05:47:12;;;;;;;34.90;9.07;;;5.30;99.90;;;;;;4981447;28;20650;-62
2022/11/26 05:49:42;;;;;;;34.50;8.60;;;5.20;99.90;;;;;;4976568;28;20306;-62
2022/11/26 05:52:11;;;;;;;33.43;9.57;;;5.20;99.90;;;;;;5000679;28;20226;-62
2022/11/26 05:54:39;;;;;;;36.60;8.70;;;5.20;99.90;;;;;;4989753;28;20222;-62
2022/11/26 05:57:07;;;;;;;31.90;9.07;;;5.20;99.90;;;;;;4980532;28;20234;-62
2022/11/26 05:59:36;;;;;;;40.23;8.83;;;5.30;99.90;;;;;;4983443;28;20566;-62
2022/11/26 06:02:04;;;;;;;38.90;9.57;;;5.30;99.90;;;;;;4974775;28;20285;-62
2022/11/26 06:04:33;;;;;;;36.60;8.43;;;5.20;99.90;;;;;;5015124;28;20195;-62
2022/11/26 06:07:02;;;;;;;38.87;9.40;;;5.20;99.90;;;;;;4986863;28;20238;-62
2022/11/26 06:09:30;;;;;;;29.93;8.83;;;5.10;99.90;;;;;;4995635;28;20227;-63
2022/11/26 06:11:58;;;;;;;31.10;8.23;;;5.10;99.90;;;;;;4978771;28;20212;-62
2022/11/26 06:14:27;;;;;;;34.87;8.83;;;5.00;99.90;;;;;;4983680;28;20195;-62
2022/11/26 06:16:55;;;;;;;36.67;9.50;;;5.00;99.90;;;;;;4973648;28;20200;-63
2022/11/26 06:19:23;;;;;;;39.30;9.63;;;5.00;99.90;;;;;;4983827;28;20250;-62
2022/11/26 06:21:52;;;;;;;30.80;9.33;;;5.00;99.90;;;;;;4983807;28;20210;-62
2022/11/26 06:24:21;;;;;;;31.90;9.23;;;4.90;99.90;;;;;;4973138;28;20200;-63
2022/11/26 06:26:49;;;;;;;39.13;9.63;;;4.90;99.90;;;;;;4976673;28;20206;-63
2022/11/26 06:29:18;;;;;;;34.03;9.80;;;4.90;99.90;;;;;;5017429;28;20571;-63
2022/11/26 06:31:53;;;;;;;31.93;8.67;;;4.90;99.90;;;;;;4976966;28;20206;-62
2022/11/26 06:34:22;;;;;;;29.70;8.47;;;4.90;99.90;;;;;;4977981;28;20228;-62
2022/11/26 06:36:51;;;;;;;36.20;9.67;;;4.90;99.90;;;;;;4975343;28;20202;-63
2022/11/26 06:39:20;;;;;;;33.20;9.47;;;4.90;99.90;;;;;;4983210;28;20182;-63
2022/11/26 06:41:49;;;;;;;35.30;9.67;;;4.80;99.90;;;;;;4982166;28;20195;-63
2022/11/26 06:44:17;;;;;;;34.80;9.43;;;4.80;99.90;;;;;;4987225;28;20199;-62
2022/11/26 06:46:45;;;;;;;35.00;9.87;;;4.70;99.90;;;;;;4983760;28;20214;-62
2022/11/26 06:49:14;;;;;;;31.37;9.93;;;4.70;99.90;;;;;;4980983;28;20198;-63
2022/11/26 06:51:42;;;;;;;37.70;9.80;;;4.70;99.90;;;;;;4985285;28;20210;-62
2022/11/26 06:54:11;;;;;;;30.90;10.93;;;4.70;99.90;;;;;;4982646;28;20223;-63
2022/11/26 06:56:40;;;;;;;30.80;10.30;;;4.70;99.90;;;;;;4988317;28;20195;-63
2022/11/26 06:59:08;;;;;;;32.20;10.63;;;4.70;99.90;;;;;;4993040;28;20190;-63
2022/11/26 07:01:37;;;;;;;34.73;12.20;;;4.60;99.90;;;;;;4980445;28;20638;-63
2022/11/26 07:04:06;;;;;;;30.77;10.43;;;4.60;99.90;;;;;;4976510;28;20727;-62
2022/11/26 07:06:34;;;;;;;33.40;11.30;;;4.80;99.90;;;;;;4992356;28;20191;-63
2022/11/26 07:09:06;;;;;;;50.20;12.37;;;4.90;99.90;;;;;;4978407;28;20201;-63
2022/11/26 07:11:35;;;;;;;35.17;11.10;;;5.00;99.90;;;;;;4987724;28;20214;-62
2022/11/26 07:14:05;;;;;;;42.63;11.10;;;5.10;99.90;;;;;;4982786;28;20203;-63
2022/11/26 07:16:34;;;;;;;36.57;10.67;;;5.10;99.90;;;;;;4986943;28;20195;-62
2022/11/26 07:19:02;;;;;;;32.20;10.63;;;5.20;99.90;;;;;;4985940;28;20205;-62
2022/11/26 07:21:31;;;;;;;36.93;11.73;;;5.20;99.90;;;;;;4979495;28;20195;-63
2022/11/26 07:23:59;;;;;;;36.37;10.80;;;5.20;99.90;;;;;;4982949;28;20195;-62
2022/11/26 07:26:30;;;;;;;41.67;10.40;;;5.20;99.90;;;;;;4981853;28;20205;-62
2022/11/26 07:28:59;;;;;;;37.57;10.77;;;5.20;99.90;;;;;;4982729;28;20203;-63
2022/11/26 07:31:29;;;;;;;31.03;10.23;;;5.20;99.90;;;;;;4984057;28;20218;-63
2022/11/26 07:33:57;;;;;;;40.47;10.50;;;5.30;99.90;;;;;;4981695;28;20211;-62
2022/11/26 07:36:27;;;;;;;36.37;10.17;;;5.30;99.90;;;;;;4975302;28;20199;-62
2022/11/26 07:38:56;;;;;;;48.57;13.30;;;5.30;99.90;;;;;;4987330;28;20669;-63
2022/11/26 07:41:25;;;;;;;43.87;12.07;;;5.40;99.90;;;;;;4980406;28;20198;-63
2022/11/26 07:43:53;;;;;;;38.30;13.40;;;5.50;99.90;;;;;;4980448;28;20202;-62
2022/11/26 07:46:24;;;;;;;47.17;12.03;;;5.50;99.90;;;;;;4989179;28;20736;-63
2022/11/26 07:48:54;;;;;;;40.57;11.80;;;5.50;99.90;;;;;;4979341;28;20294;-63
2022/11/26 07:51:24;;;;;;;33.80;10.20;;;5.50;99.90;;;;;;4972056;28;20217;-63
2022/11/26 07:53:54;;;;;;;33.40;9.80;;;5.50;99.90;;;;;;4977785;28;20272;-62
2022/11/26 07:56:22;;;;;;;32.40;10.00;;;5.60;99.90;;;;;;4990339;28;20210;-63
2022/11/26 07:58:51;;;;;;;38.07;8.70;;;5.60;99.90;;;;;;4971610;28;20261;-62
2022/11/26 08:01:21;;;;;;;35.63;9.77;;;5.70;99.90;;;;;;5043556;28;20183;-62
2022/11/26 08:03:51;;;;;;;42.50;10.30;;;5.70;99.90;;;;;;4974899;28;20214;-63
2022/11/26 08:06:23;;;;;;;31.57;8.97;;;5.80;99.90;;;;;;4978595;28;20247;-63
2022/11/26 08:08:53;;;;;;;31.87;9.30;;;5.90;99.90;;;;;;4988770;28;20211;-62
2022/11/26 08:11:23;;;;;;;38.73;10.10;;;6.00;99.90;;;;;;4972481;28;20218;-63
2022/11/26 08:13:54;;;;;;;40.70;9.23;;;6.10;99.90;;;;;;4983714;28;20203;-62
2022/11/26 08:16:22;;;;;;;36.90;8.80;;;6.20;99.90;;;;;;4969546;28;20221;-62
2022/11/26 08:18:53;;;;;;;45.90;9.17;;;6.20;99.90;;;;;;4989347;28;20670;-62
2022/11/26 08:21:23;;;;;;;34.83;9.30;;;6.30;99.90;;;;;;4973987;28;20207;-62
2022/11/26 08:23:53;;;;;;;37.57;9.13;;;6.40;99.90;;;;;;4977924;28;20207;-62
2022/11/26 08:26:22;;;;;;;32.07;9.17;;;6.40;99.90;;;;;;4974395;28;20520;-63
2022/11/26 08:29:01;;;;;;;31.33;8.73;;;6.40;99.90;;;;;;5005760;28;20665;-63
2022/11/26 08:31:29;;;;;;;26.23;8.53;;;6.50;99.90;;;;;;5005102;28;20226;-62
2022/11/26 08:33:58;;;;;;;31.13;9.20;;;6.60;99.90;;;;;;4974896;28;20199;-63
2022/11/26 08:36:29;;;;;;;33.93;9.90;;;6.70;99.90;;;;;;4980181;28;20274;-63
2022/11/26 08:39:00;;;;;;;24.67;10.03;;;6.80;99.90;;;;;;4986573;28;20198;-63
2022/11/26 08:41:28;;;;;;;27.80;8.77;;;6.80;99.90;;;;;;4972867;28;20202;-63
2022/11/26 08:43:56;;;;;;;34.03;10.70;;;6.90;99.90;;;;;;4998080;28;20644;-63
2022/11/26 08:46:34;;;;;;;34.27;10.00;;;7.00;99.90;;;;;;4979506;28;20774;-63
2022/11/26 08:49:03;;;;;;;34.43;13.47;;;7.00;99.90;;;;;;5004623;28;20191;-63
2022/11/26 08:51:34;;;;;;;43.37;14.33;;;7.00;99.90;;;;;;4982696;28;20214;-63
2022/11/26 08:54:02;;;;;;;91.63;41.00;;;7.10;99.90;;;;;;4981275;28;20688;-63
2022/11/26 08:56:31;;;;;;;84.80;37.73;;;7.10;99.90;;;;;;4981404;28;20199;-63
2022/11/26 08:58:59;;;;;;;75.53;32.80;;;7.20;99.90;;;;;;4971005;28;20250;-63
2022/11/26 09:01:29;;;;;;;118.80;53.87;;;7.10;99.90;;;;;;4970150;28;20191;-63
2022/11/26 09:04:02;;;;;;;31.93;12.87;;;7.10;99.90;;;;;;5051389;28;20209;-63
2022/11/26 09:06:35;;;;;;;41.47;15.30;;;7.20;99.90;;;;;;4989573;28;20652;-63
2022/11/26 09:09:16;;;;;;;29.27;11.13;;;7.20;99.90;;;;;;4982071;28;20203;-63
2022/11/26 09:11:48;;;;;;;27.80;10.50;;;7.20;99.90;;;;;;5009438;28;20269;-63
2022/11/26 09:14:18;;;;;;;32.87;10.00;;;7.20;99.90;;;;;;4991487;28;20195;-63
2022/11/26 09:16:47;;;;;;;26.77;8.87;;;7.20;99.90;;;;;;4976915;28;20207;-63
2022/11/26 09:19:17;;;;;;;35.73;13.60;;;7.20;99.90;;;;;;4979757;28;20243;-63
2022/11/26 09:21:47;;;;;;;34.17;11.33;;;7.30;99.90;;;;;;4978832;28;20195;-63
2022/11/26 09:24:16;;;;;;;40.47;12.07;;;7.30;99.90;;;;;;4973686;28;20550;-63
2022/11/26 09:26:47;;;;;;;38.43;14.53;;;7.40;99.90;;;;;;4979237;28;20199;-63
2022/11/26 09:29:18;;;;;;;54.73;21.57;;;7.30;99.90;;;;;;4980838;28;20257;-63
2022/11/26 09:31:47;;;;;;;42.93;14.67;;;7.40;99.90;;;;;;4972885;28;20215;-63
2022/11/26 09:34:36;;;;;;;33.00;12.07;;;7.50;99.90;;;;;;4977891;28;20599;-63
2022/11/26 09:37:06;;;;;;;49.30;18.33;;;7.60;99.90;;;;;;4981305;28;20248;-63
2022/11/26 09:39:35;;;;;;;30.47;9.93;;;7.70;99.90;;;;;;4974831;28;20515;-64
2022/11/26 09:42:06;;;;;;;39.63;16.47;;;7.90;99.90;;;;;;4984802;28;20569;-63
2022/11/26 09:44:59;;;;;;;22.17;8.57;;;8.10;99.90;;;;;;4977026;28;20214;-63
2022/11/26 09:47:31;;;;;;;31.50;12.60;;;8.30;99.90;;;;;;5002233;28;20203;-63
2022/11/26 09:50:07;;;;;;;28.07;8.20;;;8.50;99.90;;;;;;5028953;28;20199;-63
2022/11/26 09:52:41;;;;;;;30.23;12.17;;;8.70;99.90;;;;;;5017881;28;20206;-63
2022/11/26 09:55:15;;;;;;;23.77;8.77;;;8.90;99.90;;;;;;4978188;28;20222;-63
2022/11/26 09:57:51;;;;;;;36.60;16.80;;;9.20;99.90;;;;;;5079714;28;20202;-63
2022/11/26 10:00:24;;;;;;;17.67;8.33;;;9.30;99.90;;;;;;4979613;28;20209;-63
2022/11/26 10:02:54;;;;;;;28.97;9.50;;;9.40;99.90;;;;;;4984702;28;20566;-63
2022/11/26 10:05:31;;;;;;;19.63;7.40;;;9.40;99.90;;;;;;5009937;28;20984;-63
2022/11/26 10:08:14;;;;;;;29.17;9.63;;;9.30;99.90;;;;;;4983527;28;20195;-63
2022/11/26 10:10:49;;;;;;;19.17;10.03;;;9.40;99.90;;;;;;4977372;28;20688;-63
2022/11/26 10:13:22;;;;;;;34.30;18.50;;;9.50;99.90;;;;;;4976202;28;20566;-63
2022/11/26 10:16:00;;;;;;;24.40;14.17;;;9.50;99.90;;;;;;5016012;28;20206;-63
2022/11/26 10:18:37;;;;;;;23.60;9.47;;;9.50;99.90;;;;;;4981018;28;20618;-63
2022/11/26 10:21:24;;;;;;;15.90;7.27;;;9.60;99.90;;;;;;4981194;28;20231;-63
2022/11/26 10:24:20;;;;;;;20.13;6.93;;;9.60;99.90;;;;;;4978058;28;20198;-63
2022/11/26 10:26:50;;;;;;;18.97;7.13;;;9.70;99.90;;;;;;4994118;28;20194;-63
2022/11/26 10:29:24;;;;;;;19.87;6.47;;;9.80;99.90;;;;;;4999291;28;20739;-63
2022/11/26 12:57:53;;;;;;;19.37;5.50;;;12.20;99.90;;;;;;4835042;23;20613;-63
2022/11/26 13:00:59;;;;;;;17.80;6.03;;;12.10;99.90;;;;;;4836641;29;20258;-63
2022/11/26 13:03:32;;;;;;;15.00;4.87;;;12.00;99.90;;;;;;4833127;29;20244;-64
2022/11/26 13:06:06;;;;;;;14.33;4.40;;;12.10;99.90;;;;;;4825517;29;22478;-63
2022/11/26 13:08:43;;;;;;;15.10;4.63;;;12.10;99.90;;;;;;4830162;29;20295;-63
2022/11/26 13:11:25;;;;;;;20.57;5.10;;;12.20;99.90;;;;;;4831767;29;20321;-63
2022/11/26 13:14:04;;;;;;;17.13;4.67;;;12.10;99.90;;;;;;4819732;29;20208;-64
2022/11/26 13:16:38;;;;;;;16.60;7.73;;;12.10;99.90;;;;;;4823682;29;20207;-64
2022/11/26 13:19:13;;;;;;;23.57;11.47;;;12.10;99.90;;;;;;4827145;29;20330;-64
2022/11/26 13:21:55;;;;;;;23.63;7.07;;;12.10;99.90;;;;;;4823518;29;20200;-64
2022/11/26 13:24:45;;;;;;;44.37;21.07;;;12.20;99.90;;;;;;4828621;29;20742;-64
2022/11/26 13:27:30;;;;;;;31.00;12.63;;;12.20;99.90;;;;;;4829713;29;20204;-64
2022/11/26 13:30:14;;;;;;;23.77;8.90;;;12.20;99.90;;;;;;4832109;29;20215;-63
2022/11/26 13:33:13;;;;;;;21.67;8.77;;;12.20;99.90;;;;;;4828288;29;20208;-64
2022/11/26 13:36:11;;;;;;;22.53;10.07;;;12.20;99.90;;;;;;4825768;29;20216;-63
2022/11/26 13:38:52;;;;;;;33.47;13.60;;;12.30;99.90;;;;;;4830340;29;20227;-64
2022/11/26 13:41:47;;;;;;;16.70;6.03;;;12.30;99.90;;;;;;4835791;29;20204;-63
2022/11/26 13:45:02;;;;;;;20.77;8.37;;;12.30;99.90;;;;;;4835576;29;20558;-64
2022/11/26 13:47:37;;;;;;;50.27;23.43;;;12.10;99.90;;;;;;4812203;29;20208;-64
2022/11/26 13:50:10;;;;;;;28.60;14.20;;;12.10;99.90;;;;;;4836267;29;20219;-64
2022/11/26 13:52:46;;;;;;;17.13;7.90;;;12.10;99.90;;;;;;4839313;29;20223;-64
2022/11/26 13:55:21;;;;;;;21.80;10.23;;;12.00;99.90;;;;;;4837903;29;20223;-63
2022/11/26 13:57:53;;;;;;;16.87;7.77;;;12.10;99.90;;;;;;4835839;29;20247;-64
2022/11/26 14:00:27;;;;;;;30.47;17.27;;;12.10;99.90;;;;;;4836276;29;20587;-63
2022/11/26 14:02:57;;;;;;;17.93;7.90;;;11.90;99.90;;;;;;4838268;29;20213;-63
2022/11/26 14:06:06;;;;;;;18.43;7.57;;;11.90;99.90;;;;;;4830108;29;20216;-64
2022/11/26 14:08:37;;;;;;;17.17;5.23;;;11.80;99.90;;;;;;4835282;29;20295;-63
2022/11/26 14:11:06;;;;;;;17.37;8.57;;;11.70;99.90;;;;;;4838223;29;20212;-63
2022/11/26 14:13:34;;;;;;;42.90;17.47;;;11.60;99.90;;;;;;4834947;29;20364;-65
2022/11/26 14:16:05;;;;;;;22.50;11.13;;;11.60;99.90;;;;;;4830144;29;20193;-63
2022/11/26 14:18:59;;;;;;;25.63;8.97;;;11.50;99.90;;;;;;4831073;29;20265;-64
2022/11/26 14:21:29;;;;;;;17.37;4.57;;;11.50;99.90;;;;;;4838171;29;20195;-63
2022/11/26 14:24:00;;;;;;;18.90;7.00;;;11.40;99.90;;;;;;4838491;29;20207;-63
2022/11/26 14:26:33;;;;;;;26.77;11.57;;;11.30;99.90;;;;;;4837234;29;20208;-64
2022/11/26 14:29:11;;;;;;;21.53;6.10;;;11.20;99.90;;;;;;4827847;29;20224;-64
2022/11/26 14:31:49;;;;;;;46.83;29.20;;;11.20;99.90;;;;;;4830977;29;20208;-63
2022/11/26 14:34:28;;;;;;;28.20;14.47;;;11.10;99.90;;;;;;4834817;29;20256;-62
2022/11/26 14:36:59;;;;;;;36.57;17.80;;;11.10;99.90;;;;;;4829346;29;20196;-63
2022/11/26 14:39:30;;;;;;;21.60;9.73;;;11.00;99.90;;;;;;4836392;29;20269;-63
2022/11/26 14:41:59;;;;;;;29.27;11.77;;;10.90;99.90;;;;;;4836888;29;20204;-63
2022/11/26 14:44:34;;;;;;;31.07;13.00;;;10.80;99.90;;;;;;4832285;29;20203;-63
2022/11/26 14:47:10;;;;;;;38.60;8.63;;;10.80;99.90;;;;;;4831650;29;20197;-63
2022/11/26 14:49:45;;;;;;;60.93;28.50;;;10.70;99.90;;;;;;4832896;29;20208;-63
2022/11/26 14:52:21;;;;;;;32.63;14.27;;;10.70;99.90;;;;;;4835123;29;20215;-63
2022/11/26 14:54:52;;;;;;;35.87;15.40;;;10.60;99.90;;;;;;4836030;29;20241;-63
2022/11/26 14:57:25;;;;;;;20.33;6.80;;;10.60;99.90;;;;;;4831504;29;20588;-63
2022/11/26 14:59:58;;;;;;;14.83;5.27;;;10.50;99.90;;;;;;4833830;29;20830;-63
2022/11/26 15:02:29;;;;;;;20.93;6.40;;;10.40;99.90;;;;;;4826824;29;20200;-63
2022/11/26 15:05:01;;;;;;;20.13;5.80;;;10.40;99.90;;;;;;4837047;29;20264;-63
2022/11/26 15:07:31;;;;;;;22.07;9.03;;;10.40;99.90;;;;;;4837814;29;20216;-63
2022/11/26 15:10:05;;;;;;;26.13;11.33;;;10.30;99.90;;;;;;4831865;29;20196;-63
2022/11/26 15:12:36;;;;;;;21.20;7.80;;;10.20;99.90;;;;;;4839867;29;20220;-63
2022/11/26 15:15:06;;;;;;;29.40;13.47;;;10.10;99.90;;;;;;4829874;29;20215;-63
2022/11/26 15:17:35;;;;;;;15.13;4.63;;;10.10;99.90;;;;;;4827872;29;20207;-63
2022/11/26 15:20:12;;;;;;;16.17;4.70;;;10.00;99.90;;;;;;4828916;29;20207;-63
2022/11/26 15:22:44;;;;;;;20.30;5.33;;;9.90;99.90;;;;;;4830187;29;21000;-63
2022/11/26 15:25:17;;;;;;;20.97;5.70;;;9.90;99.90;;;;;;4833831;29;20207;-63
2022/11/26 15:27:53;;;;;;;19.07;5.97;;;9.80;99.90;;;;;;4832932;29;20228;-63
2022/11/26 15:30:24;;;;;;;21.07;6.13;;;9.70;99.90;;;;;;4832170;29;20204;-63